sensor_id;sensor_type;location;lat;lon;timestamp;pressure;altitude;pressure_sealevel;temperature;humidity
26657;BME280;14279;50.010;8.260;2023-04-27T00:00:26;100658.50;;;10.10;55.78
26657;BME280;14279;50.010;8.260;2023-04-27T00:02:51;100648.09;;;10.10;56.26
26657;BME280;14279;50.010;8.260;2023-04-27T00:05:17;100647.31;;;10.08;56.33
26657;BME280;14279;50.010;8.260;2023-04-27T00:07:42;100651.13;;;9.99;55.53
26657;BME280;14279;50.010;8.260;2023-04-27T00:10:08;100643.16;;;9.80;55.58
26657;BME280;14279;50.010;8.260;2023-04-27T00:12:33;100641.78;;;9.71;56.21
26657;BME280;14279;50.010;8.260;2023-04-27T00:14:58;100638.38;;;9.69;57.01
26657;BME280;14279;50.010;8.260;2023-04-27T00:17:24;100640.97;;;9.69;56.23
26657;BME280;14279;50.010;8.260;2023-04-27T00:19:49;100638.16;;;9.75;55.82
26657;BME280;14279;50.010;8.260;2023-04-27T00:22:14;100630.59;;;9.69;55.15
26657;BME280;14279;50.010;8.260;2023-04-27T00:24:40;100634.88;;;9.70;55.72
26657;BME280;14279;50.010;8.260;2023-04-27T00:27:06;100641.16;;;9.65;54.77
26657;BME280;14279;50.010;8.260;2023-04-27T00:29:31;100641.34;;;9.60;54.29
26657;BME280;14279;50.010;8.260;2023-04-27T00:31:56;100640.66;;;9.55;54.91
26657;BME280;14279;50.010;8.260;2023-04-27T00:34:22;100639.25;;;9.46;54.20
26657;BME280;14279;50.010;8.260;2023-04-27T00:36:47;100637.59;;;9.43;54.29
26657;BME280;14279;50.010;8.260;2023-04-27T00:39:12;100640.59;;;9.32;54.34
26657;BME280;14279;50.010;8.260;2023-04-27T00:41:38;100645.66;;;9.37;54.66
26657;BME280;14279;50.010;8.260;2023-04-27T00:44:05;100640.38;;;9.39;55.08
26657;BME280;14279;50.010;8.260;2023-04-27T00:46:32;100650.78;;;9.39;55.83
26657;BME280;14279;50.010;8.260;2023-04-27T00:48:57;100642.81;;;9.43;55.18
26657;BME280;14279;50.010;8.260;2023-04-27T00:51:23;100640.16;;;9.45;55.46
26657;BME280;14279;50.010;8.260;2023-04-27T00:53:52;100640.72;;;9.53;54.83
26657;BME280;14279;50.010;8.260;2023-04-27T00:56:18;100648.09;;;9.40;54.83
26657;BME280;14279;50.010;8.260;2023-04-27T00:58:43;100639.31;;;9.44;55.26
26657;BME280;14279;50.010;8.260;2023-04-27T01:01:09;100640.66;;;9.31;55.68
26657;BME280;14279;50.010;8.260;2023-04-27T01:03:34;100646.09;;;9.25;55.98
26657;BME280;14279;50.010;8.260;2023-04-27T01:06:00;100654.66;;;9.27;56.40
26657;BME280;14279;50.010;8.260;2023-04-27T01:08:29;100646.59;;;9.35;56.36
26657;BME280;14279;50.010;8.260;2023-04-27T01:10:54;100649.66;;;9.22;57.01
26657;BME280;14279;50.010;8.260;2023-04-27T01:13:19;100656.13;;;9.10;58.04
26657;BME280;14279;50.010;8.260;2023-04-27T01:15:45;100646.94;;;9.00;59.03
26657;BME280;14279;50.010;8.260;2023-04-27T01:18:10;100645.31;;;8.97;59.45
26657;BME280;14279;50.010;8.260;2023-04-27T01:20:35;100653.94;;;8.72;60.21
26657;BME280;14279;50.010;8.260;2023-04-27T01:23:02;100651.63;;;8.65;60.79
26657;BME280;14279;50.010;8.260;2023-04-27T01:25:28;100649.06;;;8.63;61.25
26657;BME280;14279;50.010;8.260;2023-04-27T01:27:53;100654.16;;;8.66;61.85
26657;BME280;14279;50.010;8.260;2023-04-27T01:30:18;100654.16;;;8.66;61.55
26657;BME280;14279;50.010;8.260;2023-04-27T01:32:44;100655.75;;;8.70;61.65
26657;BME280;14279;50.010;8.260;2023-04-27T01:35:09;100662.63;;;8.71;61.91
26657;BME280;14279;50.010;8.260;2023-04-27T01:37:35;100661.88;;;8.68;61.78
26657;BME280;14279;50.010;8.260;2023-04-27T01:40:01;100659.34;;;8.66;62.27
26657;BME280;14279;50.010;8.260;2023-04-27T01:42:27;100662.63;;;8.71;62.39
26657;BME280;14279;50.010;8.260;2023-04-27T01:44:52;100660.94;;;8.70;62.65
26657;BME280;14279;50.010;8.260;2023-04-27T01:47:18;100658.81;;;8.82;61.28
26657;BME280;14279;50.010;8.260;2023-04-27T01:49:43;100655.66;;;8.74;60.46
26657;BME280;14279;50.010;8.260;2023-04-27T01:52:09;100656.47;;;8.74;60.75
26657;BME280;14279;50.010;8.260;2023-04-27T01:54:34;100659.97;;;8.73;61.30
26657;BME280;14279;50.010;8.260;2023-04-27T01:57:00;100666.78;;;8.50;62.45
26657;BME280;14279;50.010;8.260;2023-04-27T01:59:26;100657.44;;;8.45;62.44
26657;BME280;14279;50.010;8.260;2023-04-27T02:01:52;100659.31;;;8.39;62.75
26657;BME280;14279;50.010;8.260;2023-04-27T02:04:17;100663.38;;;8.48;62.61
26657;BME280;14279;50.010;8.260;2023-04-27T02:06:42;100662.13;;;8.60;62.63
26657;BME280;14279;50.010;8.260;2023-04-27T02:09:07;100664.09;;;8.53;62.70
26657;BME280;14279;50.010;8.260;2023-04-27T02:11:33;100678.97;;;8.47;63.34
26657;BME280;14279;50.010;8.260;2023-04-27T02:13:58;100670.72;;;8.62;63.09
26657;BME280;14279;50.010;8.260;2023-04-27T02:16:23;100680.31;;;8.32;63.54
26657;BME280;14279;50.010;8.260;2023-04-27T02:18:49;100684.25;;;8.43;62.10
26657;BME280;14279;50.010;8.260;2023-04-27T02:21:14;100674.47;;;8.25;61.76
26657;BME280;14279;50.010;8.260;2023-04-27T02:23:40;100675.31;;;8.25;62.20
26657;BME280;14279;50.010;8.260;2023-04-27T02:26:05;100674.72;;;8.17;61.98
26657;BME280;14279;50.010;8.260;2023-04-27T02:28:30;100679.03;;;8.17;62.24
26657;BME280;14279;50.010;8.260;2023-04-27T02:30:56;100681.91;;;8.07;62.92
26657;BME280;14279;50.010;8.260;2023-04-27T02:33:22;100680.94;;;8.11;62.92
26657;BME280;14279;50.010;8.260;2023-04-27T02:35:47;100681.69;;;8.15;63.13
26657;BME280;14279;50.010;8.260;2023-04-27T02:38:12;100690.31;;;8.16;63.04
26657;BME280;14279;50.010;8.260;2023-04-27T02:40:37;100693.06;;;8.11;63.51
26657;BME280;14279;50.010;8.260;2023-04-27T02:43:03;100691.31;;;8.11;63.78
26657;BME280;14279;50.010;8.260;2023-04-27T02:45:28;100688.72;;;8.11;63.48
26657;BME280;14279;50.010;8.260;2023-04-27T02:47:53;100681.81;;;8.10;63.86
26657;BME280;14279;50.010;8.260;2023-04-27T02:50:18;100683.53;;;8.11;64.05
26657;BME280;14279;50.010;8.260;2023-04-27T02:52:44;100678.22;;;8.16;63.91
26657;BME280;14279;50.010;8.260;2023-04-27T02:55:09;100676.84;;;8.04;63.57
26657;BME280;14279;50.010;8.260;2023-04-27T02:57:35;100679.72;;;7.95;64.73
26657;BME280;14279;50.010;8.260;2023-04-27T03:00:00;100681.31;;;7.99;64.24
26657;BME280;14279;50.010;8.260;2023-04-27T03:02:26;100683.19;;;7.94;64.16
26657;BME280;14279;50.010;8.260;2023-04-27T03:04:52;100683.00;;;8.00;64.30
26657;BME280;14279;50.010;8.260;2023-04-27T03:07:19;100675.31;;;7.97;63.67
26657;BME280;14279;50.010;8.260;2023-04-27T03:09:45;100685.59;;;8.00;64.42
26657;BME280;14279;50.010;8.260;2023-04-27T03:12:13;100669.28;;;7.96;64.64
26657;BME280;14279;50.010;8.260;2023-04-27T03:14:38;100665.78;;;7.97;65.76
26657;BME280;14279;50.010;8.260;2023-04-27T03:17:03;100675.31;;;7.97;65.17
26657;BME280;14279;50.010;8.260;2023-04-27T03:19:29;100669.00;;;8.06;64.96
26657;BME280;14279;50.010;8.260;2023-04-27T03:21:54;100670.88;;;8.01;64.41
26657;BME280;14279;50.010;8.260;2023-04-27T03:24:20;100674.59;;;7.92;65.15
26657;BME280;14279;50.010;8.260;2023-04-27T03:26:46;100673.88;;;7.87;64.84
26657;BME280;14279;50.010;8.260;2023-04-27T03:29:11;100679.00;;;7.90;65.11
26657;BME280;14279;50.010;8.260;2023-04-27T03:31:36;100670.88;;;8.01;64.54
26657;BME280;14279;50.010;8.260;2023-04-27T03:34:01;100665.78;;;7.97;65.18
26657;BME280;14279;50.010;8.260;2023-04-27T03:36:26;100659.59;;;8.03;64.29
26657;BME280;14279;50.010;8.260;2023-04-27T03:38:52;100658.97;;;7.95;64.73
26657;BME280;14279;50.010;8.260;2023-04-27T03:41:17;100661.56;;;7.95;65.16
26657;BME280;14279;50.010;8.260;2023-04-27T03:43:42;100660.75;;;7.93;64.70
26657;BME280;14279;50.010;8.260;2023-04-27T03:46:08;100662.41;;;7.95;64.75
26657;BME280;14279;50.010;8.260;2023-04-27T03:48:33;100655.31;;;7.72;65.20
26657;BME280;14279;50.010;8.260;2023-04-27T03:50:59;100666.53;;;7.73;65.22
26657;BME280;14279;50.010;8.260;2023-04-27T03:53:25;100667.09;;;7.82;65.39
26657;BME280;14279;50.010;8.260;2023-04-27T03:55:50;100673.09;;;7.85;65.08
26657;BME280;14279;50.010;8.260;2023-04-27T03:58:16;100667.69;;;7.92;64.89
26657;BME280;14279;50.010;8.260;2023-04-27T04:00:42;100672.72;;;7.97;65.08
26657;BME280;14279;50.010;8.260;2023-04-27T04:03:07;100674.00;;;8.12;64.31
26657;BME280;14279;50.010;8.260;2023-04-27T04:05:33;100682.59;;;8.14;63.53
26657;BME280;14279;50.010;8.260;2023-04-27T04:07:58;100681.59;;;7.90;63.19
26657;BME280;14279;50.010;8.260;2023-04-27T04:10:24;100676.38;;;7.91;63.36
26657;BME280;14279;50.010;8.260;2023-04-27T04:12:50;100683.28;;;7.91;63.11
26657;BME280;14279;50.010;8.260;2023-04-27T04:15:16;100681.16;;;7.75;63.76
26657;BME280;14279;50.010;8.260;2023-04-27T04:17:41;100681.09;;;7.77;63.86
26657;BME280;14279;50.010;8.260;2023-04-27T04:20:07;100673.22;;;7.81;63.71
26657;BME280;14279;50.010;8.260;2023-04-27T04:22:36;100685.06;;;7.59;63.88
26657;BME280;14279;50.010;8.260;2023-04-27T04:25:02;100679.22;;;7.52;64.81
26657;BME280;14279;50.010;8.260;2023-04-27T04:27:27;100680.75;;;7.59;64.18
26657;BME280;14279;50.010;8.260;2023-04-27T04:29:53;100673.13;;;7.53;64.52
26657;BME280;14279;50.010;8.260;2023-04-27T04:32:19;100675.91;;;7.47;64.96
26657;BME280;14279;50.010;8.260;2023-04-27T04:34:49;100679.41;;;7.46;64.83
26657;BME280;14279;50.010;8.260;2023-04-27T04:37:15;100685.78;;;7.64;64.59
26657;BME280;14279;50.010;8.260;2023-04-27T04:39:42;100681.47;;;7.64;64.52
26657;BME280;14279;50.010;8.260;2023-04-27T04:42:08;100688.75;;;7.51;65.23
26657;BME280;14279;50.010;8.260;2023-04-27T04:44:33;100698.72;;;7.65;64.61
26657;BME280;14279;50.010;8.260;2023-04-27T04:46:58;100691.94;;;7.60;65.02
26657;BME280;14279;50.010;8.260;2023-04-27T04:49:23;100706.25;;;7.73;64.50
26657;BME280;14279;50.010;8.260;2023-04-27T04:51:49;100706.28;;;7.72;63.34
26657;BME280;14279;50.010;8.260;2023-04-27T04:54:14;100703.59;;;7.76;63.47
26657;BME280;14279;50.010;8.260;2023-04-27T04:56:39;100699.38;;;7.72;63.06
26657;BME280;14279;50.010;8.260;2023-04-27T04:59:05;100695.25;;;7.65;63.30
26657;BME280;14279;50.010;8.260;2023-04-27T05:01:30;100696.88;;;7.69;63.21
26657;BME280;14279;50.010;8.260;2023-04-27T05:03:56;100703.13;;;7.62;63.97
26657;BME280;14279;50.010;8.260;2023-04-27T05:06:21;100702.78;;;7.74;63.74
26657;BME280;14279;50.010;8.260;2023-04-27T05:08:46;100704.16;;;7.86;62.97
26657;BME280;14279;50.010;8.260;2023-04-27T05:11:12;100705.44;;;7.71;63.27
26657;BME280;14279;50.010;8.260;2023-04-27T05:13:37;100715.16;;;7.94;62.44
26657;BME280;14279;50.010;8.260;2023-04-27T05:16:06;100722.69;;;7.72;63.19
26657;BME280;14279;50.010;8.260;2023-04-27T05:18:34;100713.75;;;7.82;63.16
26657;BME280;14279;50.010;8.260;2023-04-27T05:21:00;100717.22;;;8.11;62.33
26657;BME280;14279;50.010;8.260;2023-04-27T05:23:25;100719.47;;;7.94;62.56
26657;BME280;14279;50.010;8.260;2023-04-27T05:25:51;100718.41;;;8.01;62.40
26657;BME280;14279;50.010;8.260;2023-04-27T05:28:17;100724.91;;;8.15;61.63
26657;BME280;14279;50.010;8.260;2023-04-27T05:30:42;100727.44;;;8.18;61.50
26657;BME280;14279;50.010;8.260;2023-04-27T05:33:07;100732.94;;;8.35;60.84
26657;BME280;14279;50.010;8.260;2023-04-27T05:35:33;100729.03;;;8.22;61.60
26657;BME280;14279;50.010;8.260;2023-04-27T05:37:59;100734.13;;;8.25;61.29
26657;BME280;14279;50.010;8.260;2023-04-27T05:40:24;100732.94;;;8.07;61.71
26657;BME280;14279;50.010;8.260;2023-04-27T05:42:49;100735.47;;;8.08;61.56
26657;BME280;14279;50.010;8.260;2023-04-27T05:45:15;100737.16;;;8.09;61.32
26657;BME280;14279;50.010;8.260;2023-04-27T05:47:40;100731.38;;;8.30;60.68
26657;BME280;14279;50.010;8.260;2023-04-27T05:50:06;100730.59;;;8.56;60.40
26657;BME280;14279;50.010;8.260;2023-04-27T05:52:31;100729.50;;;8.63;60.09
26657;BME280;14279;50.010;8.260;2023-04-27T05:54:57;100724.66;;;8.79;59.40
26657;BME280;14279;50.010;8.260;2023-04-27T05:57:23;100728.16;;;8.78;58.73
26657;BME280;14279;50.010;8.260;2023-04-27T05:59:49;100742.56;;;8.89;58.62
26657;BME280;14279;50.010;8.260;2023-04-27T06:02:14;100738.19;;;8.89;58.52
26657;BME280;14279;50.010;8.260;2023-04-27T06:04:40;100746.16;;;9.10;58.21
26657;BME280;14279;50.010;8.260;2023-04-27T06:07:13;100750.78;;;9.27;57.89
26657;BME280;14279;50.010;8.260;2023-04-27T06:09:39;100738.84;;;9.46;57.17
26657;BME280;14279;50.010;8.260;2023-04-27T06:12:05;100746.16;;;9.60;57.31
26657;BME280;14279;50.010;8.260;2023-04-27T06:14:32;100749.63;;;9.61;56.58
26657;BME280;14279;50.010;8.260;2023-04-27T06:16:58;100751.47;;;9.81;56.10
26657;BME280;14279;50.010;8.260;2023-04-27T06:19:23;100742.88;;;9.79;55.25
26657;BME280;14279;50.010;8.260;2023-04-27T06:21:49;100749.47;;;9.88;54.00
26657;BME280;14279;50.010;8.260;2023-04-27T06:24:15;100756.75;;;9.80;53.35
26657;BME280;14279;50.010;8.260;2023-04-27T06:26:40;100753.56;;;9.71;54.28
26657;BME280;14279;50.010;8.260;2023-04-27T06:29:05;100756.06;;;9.74;53.37
26657;BME280;14279;50.010;8.260;2023-04-27T06:31:32;100758.53;;;10.01;52.70
26657;BME280;14279;50.010;8.260;2023-04-27T06:34:10;100755.78;;;9.82;52.73
26657;BME280;14279;50.010;8.260;2023-04-27T06:36:46;100761.16;;;9.77;53.41
26657;BME280;14279;50.010;8.260;2023-04-27T06:39:11;100759.16;;;9.84;53.52
26657;BME280;14279;50.010;8.260;2023-04-27T06:41:36;100768.09;;;10.01;53.78
26657;BME280;14279;50.010;8.260;2023-04-27T06:44:02;100770.25;;;10.13;53.31
26657;BME280;14279;50.010;8.260;2023-04-27T06:46:27;100774.72;;;10.10;53.32
26657;BME280;14279;50.010;8.260;2023-04-27T06:48:52;100768.84;;;10.27;53.41
26657;BME280;14279;50.010;8.260;2023-04-27T06:51:17;100767.13;;;10.49;52.36
26657;BME280;14279;50.010;8.260;2023-04-27T06:53:43;100772.34;;;10.49;52.94
26657;BME280;14279;50.010;8.260;2023-04-27T06:56:10;100760.50;;;10.85;51.92
26657;BME280;14279;50.010;8.260;2023-04-27T06:58:35;100756.66;;;10.73;52.04
26657;BME280;14279;50.010;8.260;2023-04-27T07:01:01;100758.81;;;10.84;51.80
26657;BME280;14279;50.010;8.260;2023-04-27T07:03:27;100755.16;;;10.67;51.45
26657;BME280;14279;50.010;8.260;2023-04-27T07:05:53;100755.00;;;10.50;51.67
26657;BME280;14279;50.010;8.260;2023-04-27T07:08:18;100763.88;;;10.66;51.49
26657;BME280;14279;50.010;8.260;2023-04-27T07:10:43;100764.84;;;10.64;50.90
26657;BME280;14279;50.010;8.260;2023-04-27T07:13:08;100761.50;;;10.60;51.11
26657;BME280;14279;50.010;8.260;2023-04-27T07:15:34;100757.09;;;10.62;51.14
26657;BME280;14279;50.010;8.260;2023-04-27T07:17:59;100750.53;;;10.74;50.62
26657;BME280;14279;50.010;8.260;2023-04-27T07:20:24;100757.53;;;10.74;50.29
26657;BME280;14279;50.010;8.260;2023-04-27T07:22:50;100760.72;;;11.01;49.41
26657;BME280;14279;50.010;8.260;2023-04-27T07:25:16;100766.41;;;11.11;49.26
26657;BME280;14279;50.010;8.260;2023-04-27T07:27:41;100755.84;;;11.14;48.73
26657;BME280;14279;50.010;8.260;2023-04-27T07:30:07;100760.06;;;10.75;49.10
26657;BME280;14279;50.010;8.260;2023-04-27T07:32:35;100760.00;;;10.55;49.35
26657;BME280;14279;50.010;8.260;2023-04-27T07:35:00;100759.69;;;11.05;48.26
26657;BME280;14279;50.010;8.260;2023-04-27T07:38:05;100751.75;;;11.29;47.81
26657;BME280;14279;50.010;8.260;2023-04-27T07:40:43;100754.94;;;11.15;48.28
26657;BME280;14279;50.010;8.260;2023-04-27T07:43:14;100739.91;;;11.42;48.22
26657;BME280;14279;50.010;8.260;2023-04-27T07:45:40;100743.47;;;11.80;47.24
26657;BME280;14279;50.010;8.260;2023-04-27T07:48:10;100737.63;;;11.94;45.95
26657;BME280;14279;50.010;8.260;2023-04-27T07:50:38;100732.84;;;12.03;45.99
26657;BME280;14279;50.010;8.260;2023-04-27T07:53:04;100734.69;;;12.01;45.54
26657;BME280;14279;50.010;8.260;2023-04-27T07:55:29;100730.81;;;11.91;44.95
26657;BME280;14279;50.010;8.260;2023-04-27T07:57:58;100731.31;;;11.99;45.00
26657;BME280;14279;50.010;8.260;2023-04-27T08:00:29;100736.56;;;12.36;45.19
26657;BME280;14279;50.010;8.260;2023-04-27T08:04:06;100743.13;;;11.87;45.15
26657;BME280;14279;50.010;8.260;2023-04-27T08:06:39;100736.63;;;11.96;44.75
26657;BME280;14279;50.010;8.260;2023-04-27T08:09:04;100732.34;;;12.33;43.96
26657;BME280;14279;50.010;8.260;2023-04-27T08:11:30;100735.09;;;12.11;42.84
26657;BME280;14279;50.010;8.260;2023-04-27T08:13:56;100737.19;;;12.41;42.48
26657;BME280;14279;50.010;8.260;2023-04-27T08:16:21;100731.28;;;12.38;42.54
26657;BME280;14279;50.010;8.260;2023-04-27T08:18:48;100740.56;;;12.07;42.24
26657;BME280;14279;50.010;8.260;2023-04-27T08:21:13;100743.16;;;12.26;41.75
26657;BME280;14279;50.010;8.260;2023-04-27T08:23:50;100736.13;;;12.45;42.57
26657;BME280;14279;50.010;8.260;2023-04-27T08:26:15;100733.97;;;12.54;42.00
26657;BME280;14279;50.010;8.260;2023-04-27T08:28:41;100725.72;;;12.26;42.16
26657;BME280;14279;50.010;8.260;2023-04-27T08:31:06;100726.06;;;12.38;42.02
26657;BME280;14279;50.010;8.260;2023-04-27T08:33:31;100721.78;;;12.54;41.82
26657;BME280;14279;50.010;8.260;2023-04-27T08:35:56;100728.00;;;12.52;41.80
26657;BME280;14279;50.010;8.260;2023-04-27T08:38:22;100734.81;;;12.17;41.41
26657;BME280;14279;50.010;8.260;2023-04-27T08:40:47;100733.78;;;12.22;41.39
26657;BME280;14279;50.010;8.260;2023-04-27T08:43:12;100737.31;;;12.57;41.71
26657;BME280;14279;50.010;8.260;2023-04-27T08:45:38;100733.53;;;12.81;41.27
26657;BME280;14279;50.010;8.260;2023-04-27T08:48:04;100738.41;;;13.06;40.54
26657;BME280;14279;50.010;8.260;2023-04-27T08:50:30;100746.63;;;12.98;40.11
26657;BME280;14279;50.010;8.260;2023-04-27T08:52:55;100746.63;;;13.16;40.09
26657;BME280;14279;50.010;8.260;2023-04-27T08:55:21;100736.25;;;12.79;40.23
26657;BME280;14279;50.010;8.260;2023-04-27T08:57:55;100749.31;;;12.79;39.81
26657;BME280;14279;50.010;8.260;2023-04-27T09:00:20;100748.00;;;12.70;39.58
26657;BME280;14279;50.010;8.260;2023-04-27T09:02:46;100745.91;;;12.59;39.39
26657;BME280;14279;50.010;8.260;2023-04-27T09:05:20;100752.56;;;12.47;38.90
26657;BME280;14279;50.010;8.260;2023-04-27T09:08:00;100742.38;;;12.60;39.91
26657;BME280;14279;50.010;8.260;2023-04-27T09:10:26;100734.16;;;12.68;40.13
26657;BME280;14279;50.010;8.260;2023-04-27T09:12:56;100732.88;;;12.77;40.76
26657;BME280;14279;50.010;8.260;2023-04-27T09:15:22;100735.34;;;12.80;39.48
26657;BME280;14279;50.010;8.260;2023-04-27T09:17:52;100730.69;;;13.20;39.15
26657;BME280;14279;50.010;8.260;2023-04-27T09:20:18;100728.28;;;13.51;39.03
26657;BME280;14279;50.010;8.260;2023-04-27T09:22:48;100737.41;;;13.08;38.43
26657;BME280;14279;50.010;8.260;2023-04-27T09:25:31;100734.78;;;13.08;39.46
26657;BME280;14279;50.010;8.260;2023-04-27T09:27:57;100725.78;;;13.32;39.51
26657;BME280;14279;50.010;8.260;2023-04-27T09:30:23;100714.22;;;13.36;39.58
26657;BME280;14279;50.010;8.260;2023-04-27T09:32:56;100725.63;;;13.17;39.06
26657;BME280;14279;50.010;8.260;2023-04-27T09:35:24;100721.41;;;13.15;39.23
26657;BME280;14279;50.010;8.260;2023-04-27T09:37:50;100711.59;;;13.53;39.46
26657;BME280;14279;50.010;8.260;2023-04-27T09:40:19;100717.53;;;13.73;39.77
26657;BME280;14279;50.010;8.260;2023-04-27T09:42:47;100715.47;;;13.46;39.88
26657;BME280;14279;50.010;8.260;2023-04-27T09:45:13;100718.69;;;13.16;40.63
26657;BME280;14279;50.010;8.260;2023-04-27T09:47:39;100713.28;;;13.55;40.03
26657;BME280;14279;50.010;8.260;2023-04-27T09:50:05;100717.22;;;13.28;40.01
26657;BME280;14279;50.010;8.260;2023-04-27T09:52:32;100705.13;;;13.77;39.57
26657;BME280;14279;50.010;8.260;2023-04-27T09:54:59;100707.56;;;14.28;39.01
26657;BME280;14279;50.010;8.260;2023-04-27T09:57:35;100698.97;;;14.10;38.84
26657;BME280;14279;50.010;8.260;2023-04-27T10:03:04;100699.34;;;14.50;38.44
26657;BME280;14279;50.010;8.260;2023-04-27T10:08:35;100701.59;;;14.72;37.21
26657;BME280;14279;50.010;8.260;2023-04-27T10:11:00;100701.91;;;14.66;37.61
26657;BME280;14279;50.010;8.260;2023-04-27T10:13:26;100702.19;;;14.92;36.48
26657;BME280;14279;50.010;8.260;2023-04-27T10:15:52;100701.63;;;14.87;36.30
26657;BME280;14279;50.010;8.260;2023-04-27T10:18:31;100697.44;;;14.99;35.94
26657;BME280;14279;50.010;8.260;2023-04-27T10:21:11;100695.09;;;14.94;36.38
26657;BME280;14279;50.010;8.260;2023-04-27T10:23:51;100691.56;;;14.49;37.00
26657;BME280;14279;50.010;8.260;2023-04-27T10:26:27;100684.97;;;14.88;35.94
26657;BME280;14279;50.010;8.260;2023-04-27T10:28:59;100683.69;;;15.10;35.76
26657;BME280;14279;50.010;8.260;2023-04-27T10:31:29;100677.03;;;15.18;35.38
26657;BME280;14279;50.010;8.260;2023-04-27T10:34:09;100690.06;;;15.35;34.98
26657;BME280;14279;50.010;8.260;2023-04-27T10:36:36;100677.44;;;15.83;33.44
26657;BME280;14279;50.010;8.260;2023-04-27T10:39:02;100682.47;;;15.88;33.62
26657;BME280;14279;50.010;8.260;2023-04-27T10:41:37;100689.50;;;15.00;34.95
26657;BME280;14279;50.010;8.260;2023-04-27T10:44:19;100687.53;;;15.62;34.05
26657;BME280;14279;50.010;8.260;2023-04-27T10:46:55;100687.59;;;15.75;33.88
26657;BME280;14279;50.010;8.260;2023-04-27T10:49:22;100682.53;;;16.01;33.88
26657;BME280;14279;50.010;8.260;2023-04-27T10:51:51;100681.88;;;16.25;34.13
26657;BME280;14279;50.010;8.260;2023-04-27T10:54:17;100680.78;;;16.55;33.59
26657;BME280;14279;50.010;8.260;2023-04-27T10:56:46;100686.59;;;15.20;35.06
26657;BME280;14279;50.010;8.260;2023-04-27T10:59:15;100677.81;;;15.35;35.94
26657;BME280;14279;50.010;8.260;2023-04-27T11:01:47;100672.69;;;15.75;34.54
26657;BME280;14279;50.010;8.260;2023-04-27T11:04:16;100676.75;;;15.67;34.96
26657;BME280;14279;50.010;8.260;2023-04-27T11:06:43;100665.78;;;15.89;34.87
26657;BME280;14279;50.010;8.260;2023-04-27T11:09:10;100661.91;;;16.75;33.25
26657;BME280;14279;50.010;8.260;2023-04-27T11:11:36;100662.16;;;17.11;32.49
26657;BME280;14279;50.010;8.260;2023-04-27T11:14:02;100664.00;;;16.70;33.23
26657;BME280;14279;50.010;8.260;2023-04-27T11:16:28;100662.09;;;16.46;33.66
26657;BME280;14279;50.010;8.260;2023-04-27T11:18:54;100652.28;;;16.35;33.70
26657;BME280;14279;50.010;8.260;2023-04-27T11:21:19;100656.72;;;16.07;33.98
26657;BME280;14279;50.010;8.260;2023-04-27T11:23:46;100650.31;;;15.55;34.75
26657;BME280;14279;50.010;8.260;2023-04-27T11:26:20;100650.47;;;15.81;34.19
26657;BME280;14279;50.010;8.260;2023-04-27T11:29:03;100644.00;;;16.14;33.98
26657;BME280;14279;50.010;8.260;2023-04-27T11:31:45;100638.53;;;16.45;34.10
26657;BME280;14279;50.010;8.260;2023-04-27T11:34:18;100645.47;;;16.59;33.73
26657;BME280;14279;50.010;8.260;2023-04-27T11:36:54;100636.50;;;17.02;32.91
26657;BME280;14279;50.010;8.260;2023-04-27T11:39:20;100640.59;;;17.06;33.85
26657;BME280;14279;50.010;8.260;2023-04-27T11:41:50;100644.19;;;16.51;32.99
26657;BME280;14279;50.010;8.260;2023-04-27T11:44:15;100631.41;;;16.86;32.77
26657;BME280;14279;50.010;8.260;2023-04-27T11:46:43;100629.03;;;16.29;33.48
26657;BME280;14279;50.010;8.260;2023-04-27T11:49:09;100628.69;;;16.21;33.89
26657;BME280;14279;50.010;8.260;2023-04-27T11:51:34;100626.56;;;16.66;33.04
26657;BME280;14279;50.010;8.260;2023-04-27T11:54:06;100612.50;;;17.06;33.04
26657;BME280;14279;50.010;8.260;2023-04-27T11:56:36;100623.53;;;17.24;33.02
26657;BME280;14279;50.010;8.260;2023-04-27T11:59:02;100617.97;;;17.03;32.93
26657;BME280;14279;50.010;8.260;2023-04-27T12:01:29;100613.69;;;17.52;33.20
26657;BME280;14279;50.010;8.260;2023-04-27T12:03:55;100611.44;;;17.83;31.74
26657;BME280;14279;50.010;8.260;2023-04-27T12:06:25;100611.50;;;17.70;31.73
26657;BME280;14279;50.010;8.260;2023-04-27T12:08:50;100613.53;;;17.91;31.82
26657;BME280;14279;50.010;8.260;2023-04-27T12:11:16;100608.38;;;17.28;32.43
26657;BME280;14279;50.010;8.260;2023-04-27T12:13:43;100601.50;;;17.38;32.90
26657;BME280;14279;50.010;8.260;2023-04-27T12:16:08;100601.69;;;17.48;34.06
26657;BME280;14279;50.010;8.260;2023-04-27T12:18:34;100600.69;;;17.62;32.79
26657;BME280;14279;50.010;8.260;2023-04-27T12:20:59;100596.97;;;17.40;33.04
26657;BME280;14279;50.010;8.260;2023-04-27T12:23:24;100592.81;;;18.11;31.70
26657;BME280;14279;50.010;8.260;2023-04-27T12:25:50;100593.94;;;18.31;32.29
26657;BME280;14279;50.010;8.260;2023-04-27T12:28:15;100589.84;;;18.15;32.18
26657;BME280;14279;50.010;8.260;2023-04-27T12:30:43;100587.56;;;18.11;32.22
26657;BME280;14279;50.010;8.260;2023-04-27T12:33:09;100595.44;;;18.58;31.74
26657;BME280;14279;50.010;8.260;2023-04-27T12:35:36;100592.13;;;17.71;33.02
26657;BME280;14279;50.010;8.260;2023-04-27T12:41:49;100589.22;;;17.87;32.21
26657;BME280;14279;50.010;8.260;2023-04-27T12:44:15;100589.31;;;18.35;31.99
26657;BME280;14279;50.010;8.260;2023-04-27T12:46:42;100580.59;;;18.80;31.34
26657;BME280;14279;50.010;8.260;2023-04-27T12:49:09;100576.28;;;18.78;31.39
26657;BME280;14279;50.010;8.260;2023-04-27T12:51:36;100575.59;;;18.88;30.71
26657;BME280;14279;50.010;8.260;2023-04-27T12:54:02;100566.72;;;18.89;30.62
26657;BME280;14279;50.010;8.260;2023-04-27T12:56:28;100571.78;;;19.15;30.16
26657;BME280;14279;50.010;8.260;2023-04-27T12:58:53;100569.59;;;19.31;30.69
26657;BME280;14279;50.010;8.260;2023-04-27T13:04:41;100568.16;;;18.12;31.89
26657;BME280;14279;50.010;8.260;2023-04-27T13:07:06;100565.28;;;18.73;31.95